Time;durP1;ratioP1;P1;durP2;ratioP2;P2;SDS_P1;SDS_P2;PMS_P1;PMS_P2;Temp;Humidity;BMP_temperature;BMP_pressure;BME280_temperature;BME280_humidity;BME280_pressure;Samples;Min_cycle;Max_cycle;Signal;HPM_P1;HPM_P2
2022/07/06 00:00:04;;;;;;;6.15;1.27;;;14.90;99.90;;;;;;5036974;28;20085;-69
2022/07/06 00:02:30;;;;;;;5.25;1.20;;;14.90;99.90;;;;;;5038292;28;20053;-69
2022/07/06 00:04:57;;;;;;;4.40;1.27;;;14.90;99.90;;;;;;5038271;28;20461;-69
2022/07/06 00:07:23;;;;;;;5.53;1.20;;;14.90;99.90;;;;;;5037022;28;20049;-69
2022/07/06 00:09:49;;;;;;;5.68;1.70;;;14.90;99.90;;;;;;5037998;28;20038;-69
2022/07/06 00:12:15;;;;;;;4.53;1.23;;;14.90;99.90;;;;;;5037900;28;20041;-71
2022/07/06 00:14:41;;;;;;;8.10;1.70;;;14.90;99.90;;;;;;5037889;28;20042;-72
2022/07/06 00:17:06;;;;;;;5.57;1.77;;;14.90;99.90;;;;;;5037922;28;20364;-69
2022/07/06 00:19:32;;;;;;;5.32;1.10;;;14.90;99.90;;;;;;5037952;28;20048;-69
2022/07/06 00:21:58;;;;;;;6.95;1.60;;;14.90;99.90;;;;;;5037741;28;20037;-70
2022/07/06 00:24:23;;;;;;;6.97;1.65;;;14.90;99.90;;;;;;5056230;28;20041;-69
2022/07/06 00:26:49;;;;;;;8.48;1.70;;;14.90;99.90;;;;;;5057628;28;20053;-69
2022/07/06 00:29:14;;;;;;;6.00;1.77;;;14.90;99.90;;;;;;5057624;28;20051;-70
2022/07/06 00:31:40;;;;;;;8.57;2.08;;;14.90;99.90;;;;;;5057512;28;20057;-71
2022/07/06 00:34:05;;;;;;;5.03;1.65;;;14.90;99.90;;;;;;5057739;28;20049;-69
2022/07/06 00:36:31;;;;;;;5.32;1.55;;;14.90;99.90;;;;;;5057472;28;20095;-69
2022/07/06 00:38:57;;;;;;;9.15;1.42;;;14.90;99.90;;;;;;5038507;28;20045;-69
2022/07/06 00:41:22;;;;;;;6.88;1.92;;;14.90;99.90;;;;;;5037775;28;20120;-69
2022/07/06 00:43:49;;;;;;;7.28;1.75;;;14.90;99.90;;;;;;5037480;28;20081;-71
2022/07/06 00:46:15;;;;;;;8.70;1.83;;;14.90;99.90;;;;;;5037507;28;20056;-70
2022/07/06 00:48:40;;;;;;;7.45;1.60;;;14.90;99.90;;;;;;5037222;28;20037;-70
2022/07/06 00:51:06;;;;;;;5.82;1.42;;;14.90;99.90;;;;;;5035448;28;20085;-69
2022/07/06 00:53:32;;;;;;;5.47;1.30;;;14.90;99.90;;;;;;5037128;28;20049;-70
2022/07/06 00:55:57;;;;;;;5.43;1.45;;;14.90;99.90;;;;;;5036961;28;20049;-69
2022/07/06 00:58:23;;;;;;;6.85;1.80;;;14.90;99.90;;;;;;5037203;28;20042;-69
2022/07/06 01:00:50;;;;;;;6.95;1.35;;;14.90;99.90;;;;;;5037154;28;20367;-69
2022/07/06 01:03:15;;;;;;;6.90;1.73;;;14.90;99.90;;;;;;5037047;28;20049;-70
2022/07/06 01:05:41;;;;;;;7.18;1.73;;;14.90;99.90;;;;;;5035179;28;20042;-71
2022/07/06 01:08:07;;;;;;;8.93;2.13;;;14.90;99.90;;;;;;5036798;28;20065;-69
2022/07/06 01:10:32;;;;;;;4.22;1.40;;;14.80;99.90;;;;;;5036442;28;20052;-70
2022/07/06 01:12:58;;;;;;;9.95;2.10;;;14.90;99.90;;;;;;5036998;28;20037;-71
2022/07/06 01:15:25;;;;;;;7.93;1.90;;;14.90;99.90;;;;;;5036859;28;20108;-69
2022/07/06 01:17:51;;;;;;;4.40;1.30;;;14.90;99.90;;;;;;5036818;28;20045;-70
2022/07/06 01:20:19;;;;;;;8.98;1.85;;;14.90;99.90;;;;;;5036121;28;20090;-70
2022/07/06 01:22:46;;;;;;;4.43;1.17;;;14.90;99.90;;;;;;5034593;28;20436;-70
2022/07/06 01:25:12;;;;;;;6.05;1.63;;;14.90;99.90;;;;;;5036683;28;20081;-70
2022/07/06 01:27:39;;;;;;;6.10;1.95;;;14.90;99.90;;;;;;5036525;28;20045;-72
2022/07/06 01:30:06;;;;;;;10.55;1.35;;;15.00;99.90;;;;;;5036382;28;20048;-69
2022/07/06 01:32:31;;;;;;;7.13;1.55;;;14.90;99.90;;;;;;5036477;28;20053;-69
2022/07/06 01:34:57;;;;;;;5.28;1.92;;;14.90;99.90;;;;;;5035332;28;20041;-70
2022/07/06 01:37:23;;;;;;;6.93;1.52;;;14.90;99.90;;;;;;5036360;28;20045;-70
2022/07/06 01:39:48;;;;;;;8.23;1.73;;;14.90;99.90;;;;;;5036307;28;20337;-71
2022/07/06 01:42:14;;;;;;;4.63;1.40;;;14.80;99.90;;;;;;5035615;28;20115;-69
2022/07/06 01:44:39;;;;;;;6.13;1.73;;;14.80;99.90;;;;;;5036455;28;20049;-69
2022/07/06 01:47:05;;;;;;;6.40;1.73;;;14.80;99.90;;;;;;5036270;28;20047;-70
2022/07/06 01:49:30;;;;;;;6.00;2.17;;;14.80;99.90;;;;;;5036236;28;20076;-69
2022/07/06 01:51:56;;;;;;;7.20;1.92;;;14.80;99.90;;;;;;5035875;28;20080;-69
2022/07/06 01:54:22;;;;;;;5.53;1.20;;;14.80;99.90;;;;;;5035922;28;20056;-69
2022/07/06 01:56:47;;;;;;;8.77;2.65;;;14.80;99.90;;;;;;5035058;28;20045;-71
2022/07/06 01:59:13;;;;;;;6.88;0.90;;;14.80;99.90;;;;;;5035922;28;20476;-69
2022/07/06 02:01:38;;;;;;;6.22;1.17;;;14.80;99.90;;;;;;5035890;28;20348;-69
2022/07/06 02:04:04;;;;;;;5.93;1.17;;;14.70;99.90;;;;;;5035661;28;20388;-71
2022/07/06 02:06:29;;;;;;;3.80;1.23;;;14.70;99.90;;;;;;5035843;28;20045;-71
2022/07/06 02:08:55;;;;;;;3.67;1.23;;;14.70;99.90;;;;;;5035526;28;20120;-69
2022/07/06 02:11:20;;;;;;;3.92;1.48;;;14.70;99.90;;;;;;5035099;28;20064;-71
2022/07/06 02:13:46;;;;;;;5.85;1.30;;;14.60;99.90;;;;;;5035770;28;20121;-69
2022/07/06 02:16:12;;;;;;;5.30;1.40;;;14.60;99.90;;;;;;5035095;28;20084;-71
2022/07/06 02:18:37;;;;;;;4.90;1.08;;;14.60;99.90;;;;;;5035634;28;20452;-70
2022/07/06 02:21:04;;;;;;;4.65;1.30;;;14.60;99.90;;;;;;5035224;28;20049;-69
2022/07/06 02:23:30;;;;;;;4.03;1.00;;;14.50;99.90;;;;;;5035215;28;20041;-69
2022/07/06 02:25:55;;;;;;;4.30;1.60;;;14.50;99.90;;;;;;5035596;28;20037;-69
2022/07/06 02:28:21;;;;;;;4.15;1.33;;;14.40;99.90;;;;;;5034390;28;20045;-69
2022/07/06 02:30:47;;;;;;;5.90;1.60;;;14.40;99.90;;;;;;5034006;28;20049;-70
2022/07/06 02:33:12;;;;;;;4.13;1.20;;;14.30;99.90;;;;;;5035350;28;20340;-70
2022/07/06 02:35:42;;;;;;;3.53;1.10;;;14.30;99.90;;;;;;5035291;28;20486;-70
2022/07/06 02:38:07;;;;;;;7.32;2.13;;;14.20;99.90;;;;;;5035307;28;20067;-69
2022/07/06 02:40:33;;;;;;;6.78;1.63;;;14.10;99.90;;;;;;5034791;28;20124;-70
2022/07/06 02:42:58;;;;;;;8.10;2.60;;;14.00;99.90;;;;;;5034318;28;20045;-70
2022/07/06 02:45:24;;;;;;;5.35;1.52;;;13.90;99.90;;;;;;5034727;28;20136;-69
2022/07/06 02:47:50;;;;;;;3.05;0.70;;;13.90;99.90;;;;;;5035197;28;20045;-69
2022/07/06 02:50:16;;;;;;;7.22;1.50;;;13.80;99.90;;;;;;5035017;28;20049;-69
2022/07/06 02:52:42;;;;;;;8.15;1.60;;;13.80;99.90;;;;;;5035120;28;20470;-70
2022/07/06 02:55:08;;;;;;;6.50;1.75;;;13.70;99.90;;;;;;5035108;28;20345;-70
2022/07/06 02:57:33;;;;;;;8.00;2.10;;;13.70;99.90;;;;;;5034190;28;20116;-69
2022/07/06 02:59:59;;;;;;;4.38;1.40;;;13.60;99.90;;;;;;5034955;28;20052;-70
2022/07/06 03:02:25;;;;;;;7.07;1.38;;;13.60;99.90;;;;;;5035139;28;20394;-71
2022/07/06 03:04:50;;;;;;;10.05;1.98;;;13.50;99.90;;;;;;5034995;28;20053;-70
2022/07/06 03:07:16;;;;;;;8.07;1.17;;;13.50;99.90;;;;;;5034788;28;20050;-69
2022/07/06 03:09:41;;;;;;;5.68;1.85;;;13.40;99.90;;;;;;5035064;28;20132;-69
2022/07/06 03:12:07;;;;;;;7.93;1.85;;;13.40;99.90;;;;;;5034260;28;20080;-71
2022/07/06 03:14:33;;;;;;;5.95;1.75;;;13.40;99.90;;;;;;5035128;28;20049;-69
2022/07/06 03:16:58;;;;;;;7.95;1.55;;;13.30;99.90;;;;;;5034640;28;20144;-69
2022/07/06 03:19:24;;;;;;;7.47;1.25;;;13.30;99.90;;;;;;5034009;28;20037;-69
2022/07/06 03:21:50;;;;;;;4.22;1.45;;;13.30;99.90;;;;;;5034853;28;20131;-70
2022/07/06 03:24:15;;;;;;;4.07;1.05;;;13.20;99.90;;;;;;5034744;28;20120;-70
2022/07/06 03:26:41;;;;;;;6.15;1.70;;;13.20;99.90;;;;;;5034941;28;20053;-69
2022/07/06 03:29:06;;;;;;;6.95;1.60;;;13.20;99.90;;;;;;5034641;28;20053;-69
2022/07/06 03:31:32;;;;;;;6.28;1.45;;;13.20;99.90;;;;;;5034431;28;20057;-70
2022/07/06 03:33:57;;;;;;;6.60;1.38;;;13.20;99.90;;;;;;5035003;28;20058;-69
2022/07/06 03:36:23;;;;;;;3.67;1.27;;;13.10;99.90;;;;;;5038419;28;20128;-70
2022/07/06 03:38:49;;;;;;;8.25;2.28;;;13.10;99.90;;;;;;5038631;28;20053;-69
2022/07/06 03:41:14;;;;;;;5.40;1.52;;;13.10;99.90;;;;;;5038480;28;20455;-72
2022/07/06 03:43:40;;;;;;;4.38;1.23;;;13.10;99.90;;;;;;5038591;28;20364;-70
2022/07/06 03:46:05;;;;;;;5.28;1.42;;;13.00;99.90;;;;;;5038519;28;20436;-71
2022/07/06 03:48:31;;;;;;;4.15;1.20;;;13.10;99.90;;;;;;5037609;28;20432;-70
2022/07/06 03:50:56;;;;;;;3.22;1.30;;;13.10;99.90;;;;;;5038347;28;20085;-69
2022/07/06 03:53:22;;;;;;;6.00;1.25;;;13.00;99.90;;;;;;5038552;28;20037;-71
2022/07/06 03:56:27;;;;;;;10.70;1.67;;;13.00;99.90;;;;;;5038310;28;20034;-69
2022/07/06 03:58:33;;;;;;;4.63;1.23;;;13.00;99.90;;;;;;5038197;28;20050;-69
2022/07/06 04:00:59;;;;;;;5.05;1.40;;;13.00;99.90;;;;;;5038146;28;20053;-71
2022/07/06 04:03:26;;;;;;;6.40;1.73;;;13.00;99.90;;;;;;5037315;28;20048;-71
2022/07/06 04:05:52;;;;;;;6.82;1.20;;;13.00;99.90;;;;;;5038086;28;20508;-70
2022/07/06 04:08:18;;;;;;;6.07;1.23;;;13.00;99.90;;;;;;5037984;28;20124;-69
2022/07/06 04:10:43;;;;;;;3.50;1.00;;;13.10;99.90;;;;;;5038159;28;20204;-70
2022/07/06 04:13:09;;;;;;;7.40;1.42;;;13.10;99.90;;;;;;5038276;28;20462;-71
2022/07/06 04:15:34;;;;;;;8.77;1.50;;;13.10;99.90;;;;;;5037893;28;20474;-69
2022/07/06 04:18:00;;;;;;;8.35;1.40;;;13.10;99.90;;;;;;5035891;28;20060;-70
2022/07/06 04:20:25;;;;;;;6.30;1.65;;;13.10;99.90;;;;;;5037878;28;20046;-70
2022/07/06 04:22:52;;;;;;;9.93;1.60;;;13.10;99.90;;;;;;5037663;28;20041;-70
2022/07/06 04:25:18;;;;;;;4.70;1.20;;;13.20;99.90;;;;;;5037995;28;20045;-70
2022/07/06 04:27:43;;;;;;;6.93;1.27;;;13.20;99.90;;;;;;5037577;28;20046;-70
2022/07/06 04:30:09;;;;;;;6.10;1.27;;;13.20;99.90;;;;;;5036217;28;20081;-70
2022/07/06 04:32:36;;;;;;;4.63;1.17;;;13.20;99.90;;;;;;5037771;28;20419;-71
2022/07/06 04:35:03;;;;;;;6.70;1.40;;;13.30;99.90;;;;;;5037671;28;20095;-71
2022/07/06 04:37:29;;;;;;;5.38;1.33;;;13.30;99.90;;;;;;5037691;28;20060;-70
2022/07/06 04:39:54;;;;;;;6.80;1.17;;;13.30;99.90;;;;;;5037638;28;20447;-69
2022/07/06 04:42:20;;;;;;;7.00;1.60;;;13.30;99.90;;;;;;5037588;28;20133;-69
2022/07/06 04:44:46;;;;;;;5.68;1.35;;;13.40;99.90;;;;;;5035667;28;20474;-69
2022/07/06 04:47:14;;;;;;;4.53;1.55;;;13.50;99.90;;;;;;5036176;28;20052;-71
2022/07/06 04:49:40;;;;;;;4.72;1.42;;;13.50;99.90;;;;;;5037238;28;20052;-70
2022/07/06 04:52:07;;;;;;;8.02;1.60;;;13.60;99.90;;;;;;5037198;28;20037;-71
2022/07/06 04:54:32;;;;;;;6.03;1.25;;;13.70;99.90;;;;;;5037167;28;20050;-69
2022/07/06 04:56:58;;;;;;;5.60;1.35;;;13.70;99.90;;;;;;5037304;28;20055;-69
2022/07/06 04:59:24;;;;;;;3.03;0.90;;;13.90;99.90;;;;;;5036367;28;20108;-70
2022/07/06 05:01:49;;;;;;;7.25;1.40;;;14.00;99.90;;;;;;5036390;28;20042;-69
2022/07/06 05:04:18;;;;;;;4.60;1.17;;;14.00;99.90;;;;;;5036218;28;20535;-69
2022/07/06 05:06:43;;;;;;;6.20;1.42;;;14.20;99.90;;;;;;5036854;28;20067;-70
2022/07/06 05:09:09;;;;;;;5.22;1.23;;;14.30;99.90;;;;;;5036999;28;20041;-71
2022/07/06 05:11:35;;;;;;;3.92;1.50;;;14.40;99.90;;;;;;5036842;28;20056;-69
2022/07/06 05:14:01;;;;;;;4.65;1.40;;;14.50;99.90;;;;;;5036179;28;20052;-70
2022/07/06 05:16:26;;;;;;;10.75;1.50;;;14.60;99.90;;;;;;5036764;28;20363;-70
2022/07/06 05:18:52;;;;;;;5.72;1.08;;;14.70;99.90;;;;;;5036738;28;20124;-70
2022/07/06 05:21:17;;;;;;;15.68;2.00;;;14.70;99.90;;;;;;5036572;28;20442;-70
2022/07/06 05:23:43;;;;;;;3.97;1.10;;;14.80;99.90;;;;;;5036946;28;20048;-69
2022/07/06 05:26:09;;;;;;;7.22;1.50;;;14.80;99.90;;;;;;5036501;28;20042;-69
2022/07/06 05:28:34;;;;;;;5.20;1.25;;;14.80;99.90;;;;;;5035534;28;20414;-72
2022/07/06 05:31:00;;;;;;;4.13;1.58;;;14.80;99.90;;;;;;5034400;28;20550;-75
2022/07/06 05:33:28;;;;;;;5.82;1.15;;;14.90;99.90;;;;;;5036547;28;20049;-73
2022/07/06 05:35:53;;;;;;;4.07;1.10;;;14.90;99.90;;;;;;5036552;28;20122;-75
2022/07/06 05:38:19;;;;;;;4.55;1.10;;;14.90;99.90;;;;;;5036567;28;20123;-73
2022/07/06 05:40:45;;;;;;;5.20;1.30;;;14.90;99.90;;;;;;5036401;28;20049;-75
2022/07/06 05:43:11;;;;;;;4.78;1.33;;;14.90;99.90;;;;;;5015542;28;20188;-75
2022/07/06 05:45:36;;;;;;;4.22;1.05;;;14.90;99.90;;;;;;5032902;28;20108;-71
2022/07/06 05:50:46;;;;;;;7.68;2.40;;;14.90;99.90;;;;;;5036142;28;20045;-69
2022/07/06 05:53:12;;;;;;;3.97;0.98;;;14.80;99.90;;;;;;5035960;28;20041;-69
2022/07/06 05:55:37;;;;;;;7.75;1.45;;;14.80;99.90;;;;;;5001983;28;20045;-70
2022/07/06 05:58:03;;;;;;;7.00;1.38;;;14.80;99.90;;;;;;5034633;28;20084;-70
2022/07/06 06:00:29;;;;;;;6.68;1.30;;;14.80;99.90;;;;;;5032781;28;20048;-68
2022/07/06 06:02:55;;;;;;;5.35;1.27;;;14.80;99.90;;;;;;5035886;28;20410;-68
2022/07/06 06:05:21;;;;;;;9.07;1.45;;;14.90;99.90;;;;;;5035843;28;20042;-68
2022/07/06 06:07:48;;;;;;;6.43;1.20;;;15.00;99.90;;;;;;5035743;28;20045;-68
2022/07/06 06:10:14;;;;;;;7.22;1.30;;;15.10;99.90;;;;;;5035571;28;20443;-68
2022/07/06 06:12:41;;;;;;;4.55;1.33;;;15.10;99.90;;;;;;5035640;28;20045;-71
2022/07/06 06:15:07;;;;;;;5.80;1.25;;;15.20;99.90;;;;;;5034896;28;20041;-71
2022/07/06 06:17:33;;;;;;;7.10;1.20;;;15.20;99.90;;;;;;5035710;28;20128;-71
2022/07/06 06:19:59;;;;;;;7.10;1.10;;;15.20;99.90;;;;;;5035852;28;20420;-70
2022/07/06 06:22:25;;;;;;;8.88;2.15;;;15.30;99.90;;;;;;5035209;28;20049;-71
2022/07/06 06:24:50;;;;;;;7.28;1.20;;;15.30;99.90;;;;;;5035434;28;20111;-71
2022/07/06 06:27:17;;;;;;;3.75;0.93;;;15.40;99.90;;;;;;5035196;28;20042;-71
2022/07/06 06:29:44;;;;;;;4.38;1.00;;;15.40;99.90;;;;;;5034710;28;20075;-71
2022/07/06 06:32:11;;;;;;;8.82;1.98;;;15.40;99.90;;;;;;5035386;28;20058;-71
2022/07/06 06:34:37;;;;;;;5.72;1.10;;;15.40;99.90;;;;;;5035464;28;20503;-71
2022/07/06 06:37:03;;;;;;;6.72;1.08;;;15.40;99.90;;;;;;5035432;28;20170;-71
2022/07/06 06:39:28;;;;;;;5.10;1.17;;;15.50;99.90;;;;;;5035235;28;20042;-71
2022/07/06 06:41:54;;;;;;;4.28;1.35;;;15.50;99.90;;;;;;5034830;28;20126;-71
2022/07/06 06:44:22;;;;;;;5.28;1.00;;;15.50;99.90;;;;;;5033865;28;20041;-71
2022/07/06 06:46:52;;;;;;;4.53;1.38;;;15.50;99.90;;;;;;5035165;28;20604;-71
2022/07/06 06:49:18;;;;;;;4.80;0.82;;;15.70;99.90;;;;;;5034833;28;20494;-71
2022/07/06 06:51:44;;;;;;;5.13;1.38;;;15.70;99.90;;;;;;5035063;28;20053;-71
2022/07/06 06:54:10;;;;;;;6.65;1.52;;;15.70;99.90;;;;;;5035098;28;20060;-71
2022/07/06 06:56:35;;;;;;;4.80;1.67;;;15.80;99.90;;;;;;5035066;28;20128;-71
2022/07/06 06:59:01;;;;;;;4.63;1.70;;;15.80;99.90;;;;;;5037659;28;20033;-71
2022/07/06 07:01:27;;;;;;;8.30;1.08;;;15.80;99.90;;;;;;5054939;28;20095;-71
2022/07/06 07:03:54;;;;;;;4.00;1.02;;;16.00;99.90;;;;;;5054846;28;20041;-71
2022/07/06 07:06:21;;;;;;;2.33;0.95;;;16.00;99.90;;;;;;5054986;28;20044;-71
2022/07/06 07:08:47;;;;;;;5.28;1.20;;;16.00;99.90;;;;;;5054386;28;20045;-71
2022/07/06 07:11:13;;;;;;;6.30;1.48;;;16.00;99.90;;;;;;5054975;28;20358;-71
2022/07/06 07:13:38;;;;;;;5.70;0.88;;;16.00;99.90;;;;;;5045880;28;20042;-71
2022/07/06 07:16:04;;;;;;;7.10;1.20;;;16.00;99.90;;;;;;5034239;28;20052;-71
2022/07/06 07:18:30;;;;;;;3.13;0.98;;;16.10;99.90;;;;;;5034981;28;20387;-71
2022/07/06 07:20:56;;;;;;;5.53;1.35;;;16.20;99.90;;;;;;5034959;28;20048;-71
2022/07/06 07:23:21;;;;;;;5.88;1.52;;;16.20;99.90;;;;;;5034767;28;20045;-71
2022/07/06 07:25:47;;;;;;;3.40;1.42;;;16.10;99.90;;;;;;5034653;28;20423;-71
2022/07/06 07:28:12;;;;;;;5.25;1.33;;;15.80;99.90;;;;;;5033413;28;20076;-68
2022/07/06 07:30:38;;;;;;;8.10;1.75;;;15.70;99.90;;;;;;5034382;28;20057;-68
2022/07/06 07:33:03;;;;;;;7.20;1.60;;;15.70;99.90;;;;;;5034581;28;20470;-68
2022/07/06 07:35:29;;;;;;;11.05;5.03;;;15.90;99.90;;;;;;5034667;28;20053;-68
2022/07/06 07:37:55;;;;;;;7.72;1.55;;;16.10;99.90;;;;;;5034593;28;20129;-68
2022/07/06 07:40:21;;;;;;;5.43;1.30;;;16.30;99.90;;;;;;5034518;28;20514;-68
2022/07/06 07:42:47;;;;;;;3.15;1.13;;;16.40;99.90;;;;;;5033616;28;20089;-69
2022/07/06 07:45:12;;;;;;;5.35;1.05;;;16.60;99.90;;;;;;5033734;28;20077;-69
2022/07/06 07:47:39;;;;;;;4.32;1.08;;;16.50;99.90;;;;;;5034610;28;20049;-68
2022/07/06 07:50:05;;;;;;;5.18;1.27;;;16.50;99.90;;;;;;5034504;28;20101;-68
2022/07/06 07:52:31;;;;;;;5.78;1.38;;;16.40;99.90;;;;;;5033844;28;20478;-69
2022/07/06 07:54:56;;;;;;;5.88;1.23;;;16.50;99.90;;;;;;5034321;28;20042;-69
2022/07/06 07:57:22;;;;;;;1.90;0.90;;;16.50;99.90;;;;;;5034645;28;20467;-69
2022/07/06 07:59:48;;;;;;;3.65;1.15;;;16.60;99.90;;;;;;5033640;28;20041;-68
2022/07/06 08:02:13;;;;;;;3.72;1.20;;;16.50;99.90;;;;;;5033903;28;20053;-69
2022/07/06 08:04:39;;;;;;;3.20;1.05;;;16.50;99.90;;;;;;5034470;28;20071;-69
2022/07/06 08:07:05;;;;;;;6.13;1.10;;;16.60;99.90;;;;;;5034344;28;20085;-69
2022/07/06 08:09:30;;;;;;;4.15;1.20;;;16.60;99.90;;;;;;5034300;28;20455;-68
2022/07/06 08:11:56;;;;;;;5.35;1.83;;;16.70;99.90;;;;;;5033680;28;20052;-69
2022/07/06 08:14:22;;;;;;;5.28;1.15;;;16.80;99.90;;;;;;5034176;28;20046;-68
2022/07/06 08:16:47;;;;;;;5.13;1.30;;;16.90;99.90;;;;;;5034152;28;20045;-68
2022/07/06 08:19:14;;;;;;;4.88;1.23;;;17.00;99.90;;;;;;5034500;28;20172;-68
2022/07/06 08:21:41;;;;;;;4.28;1.20;;;17.00;99.90;;;;;;5037529;28;20060;-69
2022/07/06 08:24:07;;;;;;;7.45;1.30;;;16.70;99.90;;;;;;5037654;28;20045;-68
2022/07/06 08:26:32;;;;;;;3.55;1.00;;;16.50;99.90;;;;;;5036683;28;20052;-68
2022/07/06 08:28:58;;;;;;;3.40;1.60;;;16.50;99.90;;;;;;5037362;28;20041;-69
2022/07/06 08:31:24;;;;;;;2.08;0.80;;;16.80;99.90;;;;;;5037767;28;20467;-68
2022/07/06 08:33:52;;;;;;;5.75;1.25;;;16.80;99.90;;;;;;5037489;28;20144;-69
2022/07/06 08:36:18;;;;;;;4.70;1.02;;;16.80;99.90;;;;;;5032168;28;20442;-71
2022/07/06 08:38:44;;;;;;;6.07;1.30;;;16.70;99.90;;;;;;5037493;28;20128;-71
2022/07/06 08:41:11;;;;;;;5.90;1.50;;;16.70;99.90;;;;;;5036592;28;20045;-71
2022/07/06 08:43:36;;;;;;;4.40;1.38;;;16.80;99.90;;;;;;5039509;28;20033;-71
2022/07/06 08:46:02;;;;;;;2.85;1.25;;;16.90;99.90;;;;;;5057430;28;20041;-71
2022/07/06 08:48:35;;;;;;;3.78;1.10;;;17.10;99.90;;;;;;5057265;28;20041;-71
2022/07/06 08:51:01;;;;;;;5.82;1.50;;;16.90;99.90;;;;;;5057164;28;20481;-71
2022/07/06 08:53:27;;;;;;;4.28;1.33;;;16.90;99.90;;;;;;5057151;28;20351;-68
2022/07/06 08:55:54;;;;;;;4.75;1.35;;;16.80;99.90;;;;;;5056473;28;20080;-69
2022/07/06 08:58:20;;;;;;;6.25;1.35;;;16.90;99.90;;;;;;5037088;28;20075;-69
2022/07/06 09:00:46;;;;;;;4.40;1.15;;;16.90;99.90;;;;;;5037219;28;20081;-68
2022/07/06 09:03:12;;;;;;;4.85;1.05;;;17.00;99.90;;;;;;5037180;28;20049;-69
2022/07/06 09:05:40;;;;;;;3.25;1.20;;;17.20;99.90;;;;;;5036949;28;20412;-71
2022/07/06 09:08:05;;;;;;;5.13;1.05;;;17.50;99.90;;;;;;5036878;28;20052;-69
2022/07/06 09:10:31;;;;;;;3.67;0.90;;;17.50;99.90;;;;;;5036980;28;20041;-69
2022/07/06 09:13:08;;;;;;;6.75;1.23;;;17.60;99.90;;;;;;5036238;28;20488;-68
2022/07/06 09:15:38;;;;;;;3.08;1.23;;;17.60;99.90;;;;;;5036970;28;20053;-69
2022/07/06 09:18:04;;;;;;;5.00;1.05;;;17.50;99.90;;;;;;5036601;28;20124;-69
2022/07/06 09:20:30;;;;;;;3.10;0.95;;;17.50;99.90;;;;;;5036830;28;20191;-69
2022/07/06 09:23:04;;;;;;;2.42;0.88;;;17.50;99.90;;;;;;5036631;28;20076;-69
2022/07/06 09:25:30;;;;;;;2.65;0.85;;;17.40;99.90;;;;;;5036129;28;20057;-69
2022/07/06 09:27:57;;;;;;;2.70;1.55;;;17.40;99.90;;;;;;5036648;28;20041;-69
2022/07/06 09:30:25;;;;;;;7.60;1.30;;;17.60;99.90;;;;;;5036284;28;20056;-69
2022/07/06 09:32:53;;;;;;;3.90;0.90;;;17.60;99.90;;;;;;5036749;28;20145;-69
2022/07/06 09:35:25;;;;;;;7.03;1.15;;;17.90;99.90;;;;;;5036348;28;20053;-69
2022/07/06 09:38:07;;;;;;;3.15;1.30;;;17.80;99.90;;;;;;5036500;28;20104;-69
2022/07/06 09:40:36;;;;;;;4.68;0.90;;;17.90;99.90;;;;;;5035458;28;20052;-69
2022/07/06 09:43:17;;;;;;;3.28;0.88;;;17.90;99.90;;;;;;5036280;28;20081;-69
2022/07/06 09:45:51;;;;;;;3.97;0.98;;;18.10;99.90;;;;;;5036192;28;20049;-69
2022/07/06 09:48:25;;;;;;;2.58;0.90;;;18.20;99.90;;;;;;5035975;28;20363;-69
2022/07/06 09:50:57;;;;;;;3.65;1.15;;;18.20;99.90;;;;;;5036182;28;20049;-69
2022/07/06 09:53:25;;;;;;;1.90;0.70;;;18.20;99.90;;;;;;5036010;28;20045;-69
2022/07/06 09:55:53;;;;;;;3.88;1.30;;;18.20;99.90;;;;;;5035580;28;20348;-69
2022/07/06 09:58:20;;;;;;;2.65;0.90;;;18.10;99.90;;;;;;5035406;28;20186;-69
2022/07/06 10:00:47;;;;;;;4.82;1.00;;;18.10;99.90;;;;;;5035893;28;20049;-69
2022/07/06 10:03:14;;;;;;;4.97;1.27;;;18.10;99.90;;;;;;5035822;28;20467;-71
2022/07/06 10:05:42;;;;;;;4.22;1.00;;;18.10;99.90;;;;;;5036011;28;20042;-69
2022/07/06 10:08:09;;;;;;;4.10;1.20;;;18.30;99.90;;;;;;5035570;28;20049;-69
2022/07/06 10:10:36;;;;;;;6.30;1.60;;;18.40;99.90;;;;;;5035149;28;20041;-69
2022/07/06 10:13:03;;;;;;;4.75;1.15;;;18.60;99.90;;;;;;5035098;28;20037;-68
2022/07/06 10:15:33;;;;;;;7.07;1.05;;;18.70;99.90;;;;;;5035661;28;20067;-69
2022/07/06 10:18:00;;;;;;;3.05;0.80;;;18.80;99.90;;;;;;5035552;28;20371;-69
2022/07/06 10:20:36;;;;;;;4.53;1.40;;;18.60;99.90;;;;;;5018231;28;20049;-69
2022/07/06 10:23:03;;;;;;;2.55;1.25;;;18.70;99.90;;;;;;5035590;28;20058;-69
2022/07/06 10:25:29;;;;;;;4.25;1.08;;;18.70;99.90;;;;;;5034378;28;20376;-69
2022/07/06 10:27:56;;;;;;;3.80;0.85;;;18.90;99.90;;;;;;5035498;28;20448;-69
2022/07/06 10:30:22;;;;;;;4.68;1.27;;;19.20;99.90;;;;;;5035172;28;20103;-69
2022/07/06 10:32:50;;;;;;;3.30;0.88;;;19.10;99.90;;;;;;5035347;28;20064;-69
2022/07/06 10:35:18;;;;;;;4.28;0.90;;;18.90;99.90;;;;;;5035254;28;20117;-69
2022/07/06 10:37:44;;;;;;;3.05;1.10;;;18.60;99.90;;;;;;5035588;28;20052;-69
2022/07/06 10:42:57;;;;;;;;;;;18.90;99.90;;;;;;5035100;28;20049;-69
2022/07/06 10:45:28;;;;;;;1.85;0.90;;;19.20;99.90;;;;;;5035094;28;20007;-69
2022/07/06 10:48:12;;;;;;;3.95;1.08;;;19.10;99.90;;;;;;5034155;28;20044;-69
2022/07/06 10:50:43;;;;;;;3.20;1.23;;;19.20;99.90;;;;;;5035037;28;20045;-69
2022/07/06 10:53:39;;;;;;;2.13;0.73;;;19.20;99.90;;;;;;5034928;28;20045;-69
2022/07/06 10:56:07;;;;;;;2.63;1.00;;;19.40;99.90;;;;;;5032469;28;20061;-69
2022/07/06 10:58:48;;;;;;;1.17;0.70;;;19.40;99.90;;;;;;5045593;28;20049;-69
2022/07/06 11:01:14;;;;;;;4.05;0.95;;;19.50;99.90;;;;;;5055054;28;20127;-69
2022/07/06 11:03:46;;;;;;;6.05;1.00;;;19.50;99.90;;;;;;5054792;28;20532;-69
2022/07/06 11:06:20;;;;;;;2.67;1.48;;;19.80;99.90;;;;;;5054737;28;20436;-70
2022/07/06 11:08:59;;;;;;;3.67;1.10;;;19.50;99.90;;;;;;5054799;28;20068;-69
2022/07/06 11:11:33;;;;;;;2.85;1.23;;;19.60;99.90;;;;;;5047134;28;20033;-72
2022/07/06 11:14:05;;;;;;;4.68;0.82;;;19.70;99.90;;;;;;5034834;28;20050;-72
2022/07/06 11:16:36;;;;;;;4.00;0.93;;;19.80;99.90;;;;;;5034761;28;20067;-69
2022/07/06 11:19:10;;;;;;;3.78;1.10;;;20.00;99.90;;;;;;5035016;28;20050;-69
2022/07/06 11:21:41;;;;;;;3.15;0.85;;;20.20;99.90;;;;;;5034820;28;20042;-69
2022/07/06 11:24:09;;;;;;;4.53;1.13;;;20.30;99.90;;;;;;5034850;28;20037;-69
2022/07/06 11:26:38;;;;;;;3.03;0.93;;;20.40;99.90;;;;;;5034101;28;20045;-69
2022/07/06 11:29:06;;;;;;;3.58;1.02;;;20.50;99.90;;;;;;5034501;28;20042;-69
2022/07/06 11:31:37;;;;;;;2.45;0.80;;;20.60;99.90;;;;;;5034609;28;20120;-69
2022/07/06 11:34:05;;;;;;;2.22;0.98;;;20.70;99.90;;;;;;5033889;28;20072;-69
2022/07/06 11:36:30;;;;;;;3.90;1.20;;;20.50;99.90;;;;;;5034747;28;20049;-69
2022/07/06 11:38:56;;;;;;;2.67;1.08;;;20.70;99.90;;;;;;5034747;28;20048;-69
2022/07/06 11:41:22;;;;;;;6.13;1.70;;;20.50;99.90;;;;;;5034487;28;20084;-69
2022/07/06 11:43:50;;;;;;;2.00;0.93;;;20.40;99.90;;;;;;5034352;28;20045;-69
2022/07/06 11:46:30;;;;;;;3.65;1.10;;;20.40;99.90;;;;;;5034703;28;20087;-69
2022/07/06 11:49:03;;;;;;;2.40;1.40;;;20.40;99.90;;;;;;5033507;28;20329;-69
2022/07/06 11:51:31;;;;;;;3.50;1.33;;;20.40;99.90;;;;;;5034699;28;20050;-69
2022/07/06 11:53:59;;;;;;;6.50;1.58;;;20.20;99.90;;;;;;5034161;28;20344;-69
2022/07/06 11:56:26;;;;;;;3.67;1.70;;;19.80;99.90;;;;;;5037560;28;20064;-69
2022/07/06 11:58:56;;;;;;;2.97;1.38;;;19.60;99.90;;;;;;5038106;28;20447;-69
2022/07/06 12:01:23;;;;;;;4.85;2.90;;;19.60;99.90;;;;;;5037463;28;20462;-69
2022/07/06 12:03:49;;;;;;;7.35;1.35;;;19.60;99.90;;;;;;5038199;28;20045;-69
2022/07/06 12:06:18;;;;;;;2.80;1.30;;;19.50;99.90;;;;;;5037985;28;20056;-69
2022/07/06 12:08:48;;;;;;;3.53;0.95;;;19.60;99.90;;;;;;5038187;28;20045;-70
2022/07/06 12:11:34;;;;;;;3.17;1.00;;;19.70;99.90;;;;;;5038085;28;20415;-69
2022/07/06 12:14:22;;;;;;;2.00;1.20;;;19.50;99.90;;;;;;5038243;28;20509;-69
2022/07/06 12:16:49;;;;;;;3.08;1.55;;;19.30;99.90;;;;;;5036331;28;20152;-69
2022/07/06 12:19:15;;;;;;;3.83;1.42;;;19.40;99.90;;;;;;5038123;28;20052;-69
2022/07/06 12:21:46;;;;;;;6.07;1.63;;;19.30;99.90;;;;;;5037842;28;20045;-69
2022/07/06 12:24:19;;;;;;;5.65;1.67;;;19.30;99.90;;;;;;5037662;28;20124;-69
2022/07/06 12:26:45;;;;;;;3.70;1.50;;;19.10;99.90;;;;;;5037808;28;20121;-69
2022/07/06 12:29:15;;;;;;;4.07;1.35;;;18.80;99.90;;;;;;5037405;28;20151;-69
2022/07/06 12:31:42;;;;;;;5.07;2.25;;;18.70;99.90;;;;;;5036780;28;20053;-70
2022/07/06 12:34:25;;;;;;;2.25;1.02;;;18.70;99.90;;;;;;5037634;28;20076;-69
2022/07/06 12:36:52;;;;;;;3.67;1.15;;;19.00;99.90;;;;;;5037812;28;20049;-69
2022/07/06 12:39:42;;;;;;;3.17;1.15;;;18.80;99.90;;;;;;5037615;28;20041;-69
2022/07/06 12:42:07;;;;;;;5.90;2.13;;;19.20;99.90;;;;;;5024161;28;20458;-68
2022/07/06 12:44:46;;;;;;;4.65;1.60;;;19.20;99.90;;;;;;5037372;28;20124;-69
2022/07/06 12:47:12;;;;;;;4.80;1.80;;;19.30;99.90;;;;;;5036780;28;20068;-69
2022/07/06 12:49:39;;;;;;;4.45;2.03;;;19.20;99.90;;;;;;5036739;28;20104;-69
2022/07/06 12:52:09;;;;;;;1.98;1.50;;;19.10;99.90;;;;;;5037204;28;20045;-69